;
Station Historical Data
Daily Summary for October 12, 2018 Units:  Metric    English   Both
Next Day »
Daily Weekly Monthly Yearly Custom
  High: Low: Average:
Temperature: 16.4 °C 4 °C 9.8 °C
Dew Point: 10.3 °C 2.9 °C 6.7 °C
Humidity: 93% 60% 82%
Wind Speed: 11.1km/h 0km/h 1.4km/h
Wind Gust: 8km/h - -
Wind- - SW
Pressure: 1020.9 hPa 1018.5 hPa -
Precipitation: 0 mm    
Historical Graphs
 
 
Tabular Data for October 12, 2018
Time Temperature Dew Point Pressure Wind Wind Speed Wind Gust Humidity Rainfall Rate (Hourly)
00:04 6.6 °C 5.6 °C 1020.5 hPa Calm     93% 0 mm
00:09 6.8 °C 5.7 °C 1020.5 hPa SSE 1.9 km/h   93% 0 mm
00:14 7.2 °C 6.2 °C 1020.5 hPa Calm     93% 0 mm
00:19 7.3 °C 5.9 °C 1020.5 hPa Calm     91% 0 mm
00:24 7.5 °C 6.1 °C 1020.5 hPa Calm     91% 0 mm
00:29 7.7 °C 6 °C 1020.5 hPa South 2.9 km/h   89% 0 mm
00:34 7.8 °C 6.1 °C 1020.5 hPa Calm     89% 0 mm
00:39 7.7 °C 5.8 °C 1020.5 hPa Calm     88% 0 mm
00:44 7.6 °C 5.7 °C 1020.5 hPa Calm     88% 0 mm
00:49 7.4 °C 5.7 °C 1020.5 hPa Calm     89% 0 mm
00:54 7.4 °C 5.7 °C 1020.5 hPa South 3.7 km/h   89% 0 mm
00:59 7.3 °C 5.6 °C 1020.5 hPa Calm     89% 0 mm
01:04 7.4 °C 5.9 °C 1020.5 hPa Calm     90% 0 mm
01:09 7.4 °C 5.7 °C 1020.5 hPa Calm     89% 0 mm
01:14 7.6 °C 5.9 °C 1020.5 hPa Calm     89% 0 mm
01:19 7.5 °C 5.7 °C 1020.5 hPa Calm     88% 0 mm
01:24 7.4 °C 5.7 °C 1020.5 hPa Calm     89% 0 mm
01:29 7.4 °C 5.7 °C 1020.5 hPa Calm     89% 0 mm
01:34 7.3 °C 5.6 °C 1020.5 hPa Calm     89% 0 mm
01:39 7.3 °C 5.6 °C 1020.5 hPa Calm     89% 0 mm
01:44 7.2 °C 5.5 °C 1020.5 hPa Calm     89% 0 mm
01:49 7.2 °C 5.7 °C 1020.5 hPa Calm     90% 0 mm
01:54 7.3 °C 5.6 °C 1020.5 hPa Calm     89% 0 mm
01:59 7.3 °C 5.6 °C 1020.5 hPa Calm     89% 0 mm
02:01 7.4 °C 5.7 °C 1020.5 hPa Calm     89% 0 mm
02:15 7.6 °C 5.7 °C 1020.5 hPa Calm   8 km/h 88% 0 mm
02:20 7.7 °C 5.5 °C 1020.5 hPa Calm   3.2 km/h 86% 0 mm
02:25 7.8 °C 5.6 °C 1020.5 hPa Calm   8 km/h 86% 0 mm
02:30 8 °C 5.6 °C 1020.5 hPa Calm   3.2 km/h 85% 0 mm
02:35 8.1 °C 5.7 °C 1020.5 hPa Calm     85% 0 mm
02:40 8.1 °C 5.7 °C 1020.5 hPa Calm     85% 0 mm
02:45 7.8 °C 5.4 °C 1020.5 hPa Calm     85% 0 mm
02:49 7.6 °C 5.4 °C 1020.5 hPa Calm     86% 0 mm
02:54 7.3 °C 5.1 °C 1020.5 hPa Calm     86% 0 mm
02:59 7.1 °C 5.1 °C 1020.5 hPa Calm     87% 0 mm
03:04 6.9 °C 4.9 °C 1020.9 hPa Calm     87% 0 mm
03:09 6.8 °C 4.9 °C 1020.9 hPa Calm     88% 0 mm
03:14 6.7 °C 4.8 °C 1020.9 hPa Calm     88% 0 mm
03:19 6.6 °C 4.8 °C 1020.9 hPa Calm     88% 0 mm
03:24 6.4 °C 4.7 °C 1020.9 hPa Calm     89% 0 mm
03:29 6.3 °C 4.6 °C 1020.9 hPa Calm     89% 0 mm
03:34 6.2 °C 4.7 °C 1020.5 hPa Calm     90% 0 mm
03:39 6.1 °C 4.6 °C 1020.5 hPa Calm     90% 0 mm
03:44 6 °C 4.5 °C 1020.5 hPa Calm     90% 0 mm
03:49 5.9 °C 4.4 °C 1020.9 hPa Calm     90% 0 mm
03:54 5.9 °C 4.4 °C 1020.9 hPa Calm     90% 0 mm
03:59 5.8 °C 4.3 °C 1020.9 hPa Calm     90% 0 mm
04:04 5.7 °C 4.2 °C 1020.9 hPa Calm     90% 0 mm
04:09 5.6 °C 4.1 °C 1020.9 hPa Calm     90% 0 mm
04:14 5.5 °C 4.2 °C 1020.9 hPa Calm     91% 0 mm
04:19 5.4 °C 4.1 °C 1020.5 hPa Calm     91% 0 mm
04:24 5.4 °C 4.2 °C 1020.5 hPa Calm     92% 0 mm
04:29 5.5 °C 4.3 °C 1020.5 hPa Calm     92% 0 mm
04:34 5.5 °C 4.2 °C 1020.5 hPa Calm     91% 0 mm
04:39 5.4 °C 4.1 °C 1020.5 hPa Calm     91% 0 mm
04:44 5.3 °C 3.9 °C 1020.5 hPa Calm     91% 0 mm
04:49 5.3 °C 3.9 °C 1020.5 hPa Calm     91% 0 mm
04:54 5.2 °C 4 °C 1020.5 hPa Calm     92% 0 mm
04:59 5.2 °C 4 °C 1020.5 hPa Calm     92% 0 mm
05:04 5.2 °C 4 °C 1020.5 hPa Calm     92% 0 mm
05:09 5.2 °C 4 °C 1020.5 hPa Calm     92% 0 mm
05:14 5.1 °C 3.9 °C 1020.5 hPa Calm     92% 0 mm
05:19 5 °C 3.8 °C 1020.5 hPa Calm     92% 0 mm
05:24 4.9 °C 3.7 °C 1020.5 hPa Calm     92% 0 mm
05:29 4.9 °C 3.7 °C 1020.5 hPa Calm     92% 0 mm
05:34 4.8 °C 3.6 °C 1020.5 hPa Calm     92% 0 mm
05:39 4.8 °C 3.6 °C 1020.5 hPa Calm     92% 0 mm
05:44 4.8 °C 3.8 °C 1020.5 hPa Calm     93% 0 mm
05:49 4.8 °C 3.8 °C 1020.5 hPa Calm     93% 0 mm
05:54 4.8 °C 3.6 °C 1020.5 hPa Calm     92% 0 mm
05:59 4.8 °C 3.6 °C 1020.5 hPa Calm     92% 0 mm
06:04 4.7 °C 3.5 °C 1020.5 hPa Calm     92% 0 mm
06:09 4.7 °C 3.7 °C 1020.5 hPa Calm     93% 0 mm
06:14 4.7 °C 3.7 °C 1020.5 hPa Calm     93% 0 mm
06:19 4.6 °C 3.4 °C 1020.5 hPa Calm     92% 0 mm
06:24 4.6 °C 3.4 °C 1020.5 hPa Calm     92% 0 mm
06:29 4.5 °C 3.3 °C 1020.5 hPa Calm     92% 0 mm
06:34 4.4 °C 3.4 °C 1020.5 hPa Calm     93% 0 mm
06:39 4.4 °C 3.4 °C 1020.5 hPa Calm     93% 0 mm
06:44 4.4 °C 3.4 °C 1020.5 hPa Calm     93% 0 mm
06:49 4.3 °C 3.3 °C 1020.5 hPa Calm     93% 0 mm
06:54 4.3 °C 3.3 °C 1020.5 hPa Calm     93% 0 mm
06:59 4.2 °C 3.2 °C 1020.5 hPa Calm     93% 0 mm
07:04 4.2 °C 3.2 °C 1020.5 hPa Calm     93% 0 mm
07:09 4.2 °C 3.2 °C 1020.5 hPa Calm     93% 0 mm
07:14 4.2 °C 3.2 °C 1020.5 hPa Calm     93% 0 mm
07:19 4.1 °C 3.1 °C 1020.2 hPa Calm     93% 0 mm
07:24 4.1 °C 3.1 °C 1020.2 hPa Calm     93% 0 mm
07:29 4.1 °C 3.1 °C 1020.2 hPa Calm     93% 0 mm
07:34 4 °C 2.9 °C 1020.2 hPa Calm     93% 0 mm
07:39 4 °C 2.9 °C 1020.2 hPa Calm     93% 0 mm
07:44 4 °C 2.9 °C 1020.2 hPa Calm     93% 0 mm
07:49 4.1 °C 3.1 °C 1020.2 hPa Calm     93% 0 mm
07:54 4.1 °C 3.1 °C 1020.2 hPa Calm     93% 0 mm
07:59 4.2 °C 3.2 °C 1020.2 hPa Calm     93% 0 mm
08:04 4.3 °C 3.3 °C 1020.2 hPa Calm     93% 0 mm
08:09 4.5 °C 3.4 °C 1020.2 hPa Calm     93% 0 mm
08:14 4.6 °C 3.6 °C 1020.2 hPa Calm     93% 0 mm
08:19 4.6 °C 3.6 °C 1020.5 hPa Calm     93% 0 mm
08:24 4.7 °C 3.7 °C 1020.5 hPa Calm     93% 0 mm
08:29 4.8 °C 3.8 °C 1020.5 hPa Calm     93% 0 mm
08:34 5 °C 3.9 °C 1020.2 hPa Calm     93% 0 mm
08:39 5.2 °C 4.2 °C 1020.2 hPa Calm     93% 0 mm
08:44 5.4 °C 4.3 °C 1020.2 hPa Calm     93% 0 mm
08:49 5.7 °C 4.7 °C 1020.5 hPa Calm     93% 0 mm
08:54 5.9 °C 4.8 °C 1020.5 hPa Calm     93% 0 mm
08:59 6.2 °C 5.2 °C 1020.5 hPa Calm     93% 0 mm
09:04 6.4 °C 5.3 °C 1020.5 hPa Calm     93% 0 mm
09:09 6.6 °C 5.6 °C 1020.5 hPa Calm     93% 0 mm
09:14 6.8 °C 5.7 °C 1020.5 hPa Calm     93% 0 mm
09:19 7.2 °C 6.2 °C 1020.5 hPa Calm     93% 0 mm
09:24 7.4 °C 6.3 °C 1020.5 hPa Calm     93% 0 mm
09:29 7.7 °C 6.7 °C 1020.5 hPa Calm     93% 0 mm
09:34 8.1 °C 7.1 °C 1020.5 hPa Calm     93% 0 mm
09:39 8.5 °C 7.4 °C 1020.5 hPa Calm     93% 0 mm
09:44 8.9 °C 7.7 °C 1020.5 hPa Calm     92% 0 mm
09:49 9.5 °C 7.9 °C 1020.5 hPa Calm     90% 0 mm
09:54 10 °C 7.8 °C 1020.5 hPa Calm     86% 0 mm
09:59 10.4 °C 7.8 °C 1020.5 hPa NNW 3.9 km/h   84% 0 mm
10:04 10.8 °C 7.8 °C 1020.9 hPa Calm     82% 0 mm
10:09 11.1 °C 7.8 °C 1020.9 hPa North 3.7 km/h   80% 0 mm
10:14 11.3 °C 8 °C 1020.9 hPa Calm     80% 0 mm
10:19 11.6 °C 8.1 °C 1020.5 hPa Calm     79% 0 mm
10:24 11.7 °C 8.2 °C 1020.5 hPa Calm     79% 0 mm
10:29 11.9 °C 8 °C 1020.5 hPa Calm     77% 0 mm
10:34 12.2 °C 8.1 °C 1020.5 hPa North 3.7 km/h   76% 0 mm
10:39 12.4 °C 8.3 °C 1020.5 hPa NNW 3.9 km/h   76% 0 mm
10:44 12.7 °C 8.9 °C 1020.5 hPa Calm     78% 0 mm
10:49 13 °C 8.7 °C 1020.9 hPa NNE 5.6 km/h   75% 0 mm
10:54 13.3 °C 9.3 °C 1020.9 hPa North 3.7 km/h   77% 0 mm
10:59 13.5 °C 9.3 °C 1020.9 hPa Calm     76% 0 mm
11:04 13.6 °C 9.4 °C 1020.5 hPa North 4.7 km/h   76% 0 mm
11:09 13.8 °C 9.2 °C 1020.5 hPa NNW 5 km/h   74% 0 mm
11:14 13.8 °C 9.4 °C 1020.5 hPa Calm     75% 0 mm
11:19 14 °C 9.6 °C 1020.5 hPa Calm     75% 0 mm
11:24 14.1 °C 9.3 °C 1020.5 hPa Calm     73% 0 mm
11:29 14.1 °C 9.1 °C 1020.5 hPa Calm     72% 0 mm
11:34 14.3 °C 8.9 °C 1020.5 hPa NNW 3.7 km/h   70% 0 mm
11:39 14.4 °C 8.6 °C 1020.5 hPa NNE 3.7 km/h   68% 0 mm
11:44 14.4 °C 8.6 °C 1020.5 hPa NE 3.7 km/h   68% 0 mm
11:49 14.6 °C 9.6 °C 1020.5 hPa Calm     72% 0 mm
11:54 14.8 °C 10 °C 1020.5 hPa Calm     73% 0 mm
11:59 15 °C 9.8 °C 1020.5 hPa Calm     71% 0 mm
12:04 15.1 °C 9.4 °C 1020.5 hPa Calm     69% 0 mm
12:09 15.1 °C 9.9 °C 1020.5 hPa Calm     71% 0 mm
12:14 15.2 °C 8.9 °C 1020.5 hPa Calm     66% 0 mm
12:19 15.4 °C 9.1 °C 1020.2 hPa NNE 1.9 km/h   66% 0 mm
12:24 15.5 °C 9.2 °C 1020.2 hPa NNW 5.6 km/h   66% 0 mm
12:29 15.6 °C 9.3 °C 1020.2 hPa North 7.4 km/h 2.3 km/h 66% 0 mm
12:34 15.7 °C 9.6 °C 1020.2 hPa North 3.9 km/h 2.3 km/h 67% 0 mm
12:39 15.8 °C 9.4 °C 1020.2 hPa NNE 7.4 km/h 2.3 km/h 66% 0 mm
12:44 15.9 °C 8.8 °C 1020.2 hPa North 7.4 km/h 2.3 km/h 63% 0 mm
12:49 15.9 °C 8.8 °C 1019.9 hPa Calm   2.3 km/h 63% 0 mm
12:54 16 °C 8.9 °C 1019.9 hPa Calm   2.3 km/h 63% 0 mm
12:59 16.1 °C 9.3 °C 1019.9 hPa North 7.4 km/h 2.3 km/h 64% 0 mm
13:04 16.2 °C 9.4 °C 1019.9 hPa North 9.3 km/h 2.3 km/h 64% 0 mm
13:09 16.2 °C 9.6 °C 1019.9 hPa Calm   2.9 km/h 65% 0 mm
13:14 16.2 °C 8.4 °C 1019.9 hPa NNE 7.4 km/h 2.9 km/h 60% 0 mm
13:19 16.2 °C 9.4 °C 1019.9 hPa Calm   2.9 km/h 64% 0 mm
13:24 16.3 °C 9.5 °C 1019.9 hPa Calm   2.9 km/h 64% 0 mm
13:29 16.4 °C 8.6 °C 1019.9 hPa NNE 9.3 km/h   60% 0 mm
13:34 16.4 °C 9.1 °C 1019.5 hPa North 8.4 km/h   62% 0 mm
13:39 16.3 °C 9 °C 1019.5 hPa NE 7.4 km/h 3.2 km/h 62% 0 mm
13:44 16.3 °C 9.2 °C 1019.5 hPa NNW 3.7 km/h 3.2 km/h 63% 0 mm
13:49 16.2 °C 8.9 °C 1019.5 hPa NW 8.4 km/h 2.9 km/h 62% 0 mm
13:54 16.2 °C 8.9 °C 1019.5 hPa NNW 9.3 km/h 2.9 km/h 62% 0 mm
13:59 16.1 °C 9.1 °C 1019.5 hPa NNW 6.9 km/h 4.7 km/h 63% 0 mm
14:04 16.1 °C 8.8 °C 1019.5 hPa North 9.3 km/h 4.7 km/h 62% 0 mm
14:09 16.1 °C 9.1 °C 1019.5 hPa NNW 6.4 km/h 2.9 km/h 63% 0 mm
14:14 16 °C 8.9 °C 1019.5 hPa Calm   2.9 km/h 63% 0 mm
14:19 16 °C 8.9 °C 1019.2 hPa NNW 7.4 km/h   63% 0 mm
14:24 16.1 °C 9.3 °C 1019.2 hPa ESE 1.9 km/h   64% 0 mm
14:29 16 °C 8.7 °C 1019.2 hPa North 11.1 km/h 2.9 km/h 62% 0 mm
14:34 16 °C 8.7 °C 1019.2 hPa NNE 6.9 km/h 2.9 km/h 62% 0 mm
14:39 15.9 °C 8.8 °C 1019.2 hPa NNW 5.6 km/h 3.2 km/h 63% 0 mm
14:44 16 °C 9.4 °C 1019.2 hPa Calm   3.2 km/h 65% 0 mm
14:49 16 °C 10.1 °C 1019.2 hPa North 3.7 km/h   68% 0 mm
14:54 16 °C 9.7 °C 1019.2 hPa North 8.4 km/h   66% 0 mm
14:59 16 °C 10.3 °C 1019.2 hPa Calm   2.9 km/h 69% 0 mm
15:04 16 °C 9.7 °C 1018.8 hPa North 5.8 km/h 2.9 km/h 66% 0 mm
15:09 16.1 °C 10.2 °C 1018.8 hPa SSW 5.6 km/h 2.9 km/h 68% 0 mm
15:14 15.9 °C 10.2 °C 1018.8 hPa Calm   2.9 km/h 69% 0 mm
15:19 15.9 °C 9.8 °C 1018.8 hPa NNE 8.4 km/h 2.3 km/h 67% 0 mm
15:24 15.9 °C 9.8 °C 1018.8 hPa North 10.3 km/h 2.3 km/h 67% 0 mm
15:29 15.9 °C 9.8 °C 1018.8 hPa NNE 11.1 km/h 3.9 km/h 67% 0 mm
15:34 15.8 °C 9.9 °C 1018.8 hPa North 5.6 km/h 3.9 km/h 68% 0 mm
15:39 15.8 °C 9.7 °C 1018.8 hPa NNW 8.7 km/h 2.9 km/h 67% 0 mm
15:44 15.8 °C 9.7 °C 1018.8 hPa NW 9.3 km/h 2.9 km/h 67% 0 mm
15:49 15.7 °C 10 °C 1018.8 hPa North 6.9 km/h 4.7 km/h 69% 0 mm
15:54 15.7 °C 10 °C 1018.8 hPa NNE 5.6 km/h 4.7 km/h 69% 0 mm
15:59 15.7 °C 9.8 °C 1018.8 hPa NNW 5.6 km/h 2.9 km/h 68% 0 mm
16:04 15.6 °C 10.2 °C 1018.8 hPa SW 7.4 km/h 2.9 km/h 70% 0 mm
16:09 15.6 °C 9.9 °C 1018.8 hPa North 7.4 km/h 2.9 km/h 69% 0 mm
16:14 15.6 °C 9.9 °C 1018.8 hPa North 9.3 km/h 2.9 km/h 69% 0 mm
16:19 15.6 °C 10.2 °C 1018.8 hPa North 7.4 km/h 2.9 km/h 70% 0 mm
16:24 15.6 °C 10.3 °C 1018.8 hPa North 5.6 km/h 2.9 km/h 71% 0 mm
16:29 15.6 °C 10.2 °C 1018.8 hPa North 5 km/h 3.2 km/h 70% 0 mm
16:34 15.5 °C 10.1 °C 1019.2 hPa NNE 9.3 km/h 3.2 km/h 70% 0 mm
16:39 15.5 °C 9.8 °C 1019.2 hPa NNW 9.3 km/h 2.3 km/h 69% 0 mm
16:44 15.4 °C 9.7 °C 1019.2 hPa North 10 km/h 2.3 km/h 69% 0 mm
16:49 15.3 °C 9.8 °C 1018.8 hPa WNW 11.1 km/h 3.9 km/h 70% 0 mm
16:54 15.2 °C 9.6 °C 1018.8 hPa NW 7.4 km/h 3.9 km/h 69% 0 mm
16:59 15.2 °C 10.2 °C 1018.8 hPa NW 3.7 km/h 3.2 km/h 72% 0 mm
17:04 15.1 °C 9.9 °C 1018.8 hPa SSW 3.7 km/h 3.2 km/h 71% 0 mm
17:09 15 °C 9.8 °C 1018.8 hPa SW 3.7 km/h 2.3 km/h 71% 0 mm
17:14 14.8 °C 9.4 °C 1018.8 hPa NW 3.7 km/h 2.3 km/h 70% 0 mm
17:19 14.7 °C 9.7 °C 1018.8 hPa SW 3.7 km/h   72% 0 mm
17:24 14.5 °C 8.9 °C 1018.8 hPa WNW 3.7 km/h   69% 0 mm
17:29 14.4 °C 9 °C 1018.8 hPa Calm     70% 0 mm
17:34 14.2 °C 9.2 °C 1018.8 hPa NNW 3.7 km/h   72% 0 mm
17:39 13.9 °C 8.7 °C 1018.8 hPa NW 7.4 km/h   71% 0 mm
17:44 13.8 °C 8.8 °C 1018.8 hPa Calm     72% 0 mm
17:49 13.6 °C 9.1 °C 1018.8 hPa Calm     74% 0 mm
17:54 13.4 °C 9.1 °C 1018.8 hPa Calm     75% 0 mm
17:59 13.2 °C 8.9 °C 1018.8 hPa Calm     75% 0 mm
18:04 13 °C 8.7 °C 1018.8 hPa Calm     75% 0 mm
18:09 12.9 °C 8.8 °C 1018.8 hPa Calm     76% 0 mm
18:14 12.7 °C 8.4 °C 1018.8 hPa Calm     75% 0 mm
18:19 12.6 °C 8.3 °C 1018.5 hPa Calm     75% 0 mm
18:24 12.4 °C 8.1 °C 1018.5 hPa Calm     75% 0 mm
18:29 12.3 °C 8.2 °C 1018.5 hPa Calm     76% 0 mm
18:34 12.2 °C 8.1 °C 1018.5 hPa Calm     76% 0 mm
18:39 12.1 °C 8.2 °C 1018.5 hPa Calm     77% 0 mm
18:44 12 °C 8.3 °C 1018.5 hPa Calm     78% 0 mm
18:49 11.9 °C 8.2 °C 1018.8 hPa Calm     78% 0 mm
18:54 11.8 °C 8.3 °C 1018.8 hPa Calm     79% 0 mm
18:59 11.7 °C 8.4 °C 1018.8 hPa Calm     80% 0 mm
19:04 11.6 °C 8.3 °C 1018.8 hPa Calm     80% 0 mm
19:09 11.4 °C 8.1 °C 1018.8 hPa Calm     80% 0 mm
19:14 11.3 °C 8 °C 1018.8 hPa Calm     80% 0 mm
19:19 11.3 °C 8 °C 1019.2 hPa Calm     80% 0 mm
19:24 11.2 °C 7.9 °C 1019.2 hPa Calm     80% 0 mm
19:29 11.1 °C 7.8 °C 1019.2 hPa Calm     80% 0 mm
19:34 11 °C 7.9 °C 1019.2 hPa Calm     81% 0 mm
19:39 10.9 °C 7.8 °C 1019.2 hPa Calm     81% 0 mm
19:44 10.8 °C 7.8 °C 1019.2 hPa Calm     82% 0 mm
19:49 10.7 °C 7.8 °C 1019.2 hPa Calm     82% 0 mm
19:54 10.5 °C 7.7 °C 1019.2 hPa Calm     83% 0 mm
19:59 10.4 °C 7.6 °C 1019.2 hPa Calm     83% 0 mm
20:04 10.2 °C 7.4 °C 1019.5 hPa Calm     83% 0 mm
20:09 10 °C 7.2 °C 1019.5 hPa Calm     83% 0 mm
20:14 9.8 °C 7.2 °C 1019.5 hPa Calm     84% 0 mm
20:19 9.6 °C 7 °C 1019.5 hPa Calm     84% 0 mm
20:24 9.4 °C 7 °C 1019.5 hPa Calm     85% 0 mm
20:29 9.3 °C 7.1 °C 1019.5 hPa Calm     86% 0 mm
20:34 9.1 °C 6.9 °C 1019.5 hPa Calm     86% 0 mm
20:39 8.9 °C 6.5 °C 1019.5 hPa Calm     85% 0 mm
20:44 8.8 °C 6.8 °C 1019.5 hPa Calm     87% 0 mm
20:49 8.6 °C 6.6 °C 1019.5 hPa Calm     87% 0 mm
20:54 8.5 °C 6.4 °C 1019.5 hPa Calm     87% 0 mm
20:59 8.3 °C 6.3 °C 1019.5 hPa Calm     87% 0 mm
21:04 8.2 °C 6.2 °C 1019.5 hPa Calm     87% 0 mm
21:09 8.1 °C 6.2 °C 1019.5 hPa Calm     88% 0 mm
21:14 7.9 °C 6.1 °C 1019.5 hPa Calm     88% 0 mm
21:19 7.8 °C 5.9 °C 1019.9 hPa Calm     88% 0 mm
21:24 7.7 °C 6 °C 1019.9 hPa Calm     89% 0 mm
21:29 7.7 °C 6 °C 1019.9 hPa Calm     89% 0 mm
21:34 7.5 °C 5.8 °C 1019.9 hPa Calm     89% 0 mm
21:39 7.4 °C 5.9 °C 1019.9 hPa Calm     90% 0 mm
21:44 7.4 °C 6 °C 1019.9 hPa Calm     91% 0 mm
21:49 7.4 °C 6.2 °C 1020.2 hPa Calm     92% 0 mm
21:54 7.6 °C 6.4 °C 1020.2 hPa Calm     92% 0 mm
21:59 7.7 °C 6.5 °C 1020.2 hPa Calm     92% 0 mm
22:04 7.8 °C 6.6 °C 1020.2 hPa Calm     92% 0 mm
22:09 7.9 °C 6.5 °C 1020.2 hPa Calm     91% 0 mm
22:14 7.8 °C 6.3 °C 1020.2 hPa Calm     90% 0 mm
22:19 7.8 °C 6.3 °C 1020.2 hPa Calm     90% 0 mm
22:24 7.6 °C 5.9 °C 1020.2 hPa Calm     89% 0 mm
22:29 7.5 °C 5.9 °C 1020.2 hPa Calm     90% 0 mm
22:34 7.4 °C 5.9 °C 1020.2 hPa Calm     90% 0 mm
22:39 7.4 °C 6 °C 1020.2 hPa Calm     91% 0 mm
22:44 7.3 °C 5.8 °C 1020.2 hPa Calm     90% 0 mm
22:49 7.2 °C 5.7 °C 1020.5 hPa Calm     90% 0 mm
22:54 7.1 °C 5.6 °C 1020.5 hPa Calm     90% 0 mm
22:59 6.9 °C 5.4 °C 1020.5 hPa Calm     90% 0 mm
23:04 6.9 °C 5.6 °C 1020.5 hPa Calm     91% 0 mm
23:09 6.8 °C 5.4 °C 1020.5 hPa Calm     91% 0 mm
23:14 6.8 °C 5.4 °C 1020.5 hPa Calm     91% 0 mm
23:19 6.7 °C 5.3 °C 1020.5 hPa Calm     91% 0 mm
23:24 6.7 °C 5.2 °C 1020.5 hPa Calm     90% 0 mm
23:29 6.6 °C 5.1 °C 1020.5 hPa Calm     90% 0 mm
23:34 6.4 °C 4.9 °C 1020.5 hPa Calm     90% 0 mm
23:39 6.3 °C 4.8 °C 1020.5 hPa Calm     90% 0 mm
23:44 6.2 °C 4.8 °C 1020.5 hPa Calm     91% 0 mm
23:49 6.1 °C 4.7 °C 1020.9 hPa Calm     91% 0 mm
23:54 6 °C 4.7 °C 1020.9 hPa Calm     91% 0 mm
23:59 5.9 °C 4.6 °C 1020.9 hPa Calm     91% 0 mm
Amateur Radio Station WA6MVG